createdAt,value
2022-12-06T00:01:09.458Z,83.05
2022-12-06T00:03:37.325Z,83.11
2022-12-06T00:06:06.777Z,83.20
2022-12-06T00:08:34.076Z,83.47
2022-12-06T00:11:09.938Z,83.32
2022-12-06T00:13:37.860Z,83.35
2022-12-06T00:16:07.834Z,83.18
2022-12-06T00:18:36.333Z,82.99
2022-12-06T00:21:14.953Z,82.90
2022-12-06T00:23:48.428Z,82.63
2022-12-06T00:26:15.553Z,82.74
2022-12-06T00:28:42.989Z,83.78
2022-12-06T00:31:13.534Z,83.53
2022-12-06T00:33:40.337Z,82.94
2022-12-06T00:36:11.251Z,82.88
2022-12-06T00:38:38.192Z,82.94
2022-12-06T00:41:10.715Z,82.36
2022-12-06T00:43:38.245Z,83.41
2022-12-06T00:46:07.846Z,83.27
2022-12-06T00:48:35.351Z,82.38
2022-12-06T00:51:02.372Z,82.03
2022-12-06T00:53:29.442Z,82.31
2022-12-06T00:55:56.468Z,82.16
2022-12-06T00:58:23.957Z,82.40
2022-12-06T01:00:51.275Z,82.31
2022-12-06T01:03:18.775Z,82.58
2022-12-06T01:05:48.016Z,83.55
2022-12-06T01:08:16.460Z,83.19
2022-12-06T01:10:52.165Z,82.37
2022-12-06T01:13:19.277Z,83.28
2022-12-06T01:15:46.333Z,83.15
2022-12-06T01:18:13.366Z,83.76
2022-12-06T01:20:40.136Z,83.84
2022-12-06T01:23:06.925Z,84.96
2022-12-06T01:25:36.175Z,84.68
2022-12-06T01:28:04.240Z,84.31
2022-12-06T01:30:31.458Z,85.34
2022-12-06T01:32:58.363Z,85.09
2022-12-06T01:35:25.145Z,84.33
2022-12-06T01:37:51.981Z,84.25
2022-12-06T01:40:18.841Z,83.95
2022-12-06T01:42:45.664Z,84.37
2022-12-06T01:45:12.553Z,84.17
2022-12-06T01:47:42.703Z,83.80
2022-12-06T01:50:19.988Z,83.98
2022-12-06T01:52:46.769Z,83.83
2022-12-06T01:55:14.804Z,83.38
2022-12-06T01:57:41.855Z,84.24
2022-12-06T02:00:09.238Z,83.84
2022-12-06T02:02:39.018Z,84.21
2022-12-06T02:05:07.933Z,84.69
2022-12-06T02:07:35.430Z,83.82
2022-12-06T02:10:03.428Z,84.57
2022-12-06T02:12:30.223Z,83.41
2022-12-06T02:14:57.160Z,83.08
2022-12-06T02:17:47.644Z,83.30
2022-12-06T02:20:20.317Z,83.62
2022-12-06T02:23:06.043Z,84.16
2022-12-06T02:26:00.515Z,83.25
2022-12-06T02:28:30.182Z,84.88
2022-12-06T02:31:05.091Z,85.16
2022-12-06T02:33:50.450Z,84.49
2022-12-06T02:36:24.937Z,84.12
2022-12-06T02:39:13.860Z,83.93
2022-12-06T02:41:53.461Z,83.67
2022-12-06T02:44:26.868Z,83.90
2022-12-06T02:46:56.499Z,84.01
2022-12-06T02:49:27.990Z,84.51
2022-12-06T02:51:56.798Z,84.55
2022-12-06T02:54:25.608Z,83.99
2022-12-06T02:56:52.861Z,84.05
2022-12-06T02:59:19.755Z,85.33
2022-12-06T03:01:52.539Z,85.05
2022-12-06T03:04:35.088Z,84.88
2022-12-06T03:07:10.974Z,85.08
2022-12-06T03:10:03.236Z,84.25
2022-12-06T03:12:45.922Z,84.35
2022-12-06T03:15:46.304Z,84.36
2022-12-06T03:18:22.174Z,84.80
2022-12-06T03:20:55.920Z,83.57
2022-12-06T03:23:31.761Z,83.27
2022-12-06T03:26:01.018Z,83.23
2022-12-06T03:28:30.151Z,83.94
2022-12-06T03:31:02.253Z,84.64
2022-12-06T03:33:32.664Z,83.57
2022-12-06T03:36:00.204Z,84.96
2022-12-06T03:38:35.776Z,84.36
2022-12-06T03:41:06.247Z,84.25
2022-12-06T03:43:34.256Z,83.82
2022-12-06T03:46:10.795Z,83.14
2022-12-06T03:49:04.810Z,83.90
2022-12-06T03:51:34.822Z,83.44
2022-12-06T03:54:04.773Z,83.96
2022-12-06T03:56:32.662Z,84.02
2022-12-06T03:58:59.504Z,83.78
2022-12-06T04:01:26.438Z,83.11
2022-12-06T04:03:53.317Z,83.13
2022-12-06T04:06:20.174Z,83.16
2022-12-06T04:08:47.144Z,83.48
2022-12-06T04:11:14.029Z,82.72
2022-12-06T04:13:41.608Z,83.37
2022-12-06T04:16:29.237Z,82.68
2022-12-06T04:18:56.386Z,83.36
2022-12-06T04:21:32.203Z,82.44
2022-12-06T04:24:00.073Z,82.90
2022-12-06T04:26:27.146Z,83.39
2022-12-06T04:29:13.051Z,83.45
2022-12-06T04:31:59.443Z,83.35
2022-12-06T04:34:44.913Z,83.02
2022-12-06T04:37:30.497Z,83.00
2022-12-06T04:39:57.493Z,82.57
2022-12-06T04:42:43.432Z,83.26
2022-12-06T04:45:10.678Z,82.28
2022-12-06T04:47:37.469Z,82.08
2022-12-06T04:50:04.874Z,81.87
2022-12-06T04:52:35.683Z,82.61
2022-12-06T04:55:05.025Z,82.51
2022-12-06T04:57:31.884Z,83.24
2022-12-06T04:59:59.049Z,83.20
2022-12-06T05:02:26.142Z,82.85
2022-12-06T05:04:52.949Z,81.68
2022-12-06T05:07:19.888Z,82.96
2022-12-06T05:09:46.693Z,81.53
2022-12-06T05:12:13.606Z,82.83
2022-12-06T05:14:40.466Z,82.42
2022-12-06T05:17:07.392Z,82.19
2022-12-06T05:19:34.284Z,81.95
2022-12-06T05:22:01.072Z,81.43
2022-12-06T05:24:27.945Z,81.14
2022-12-06T05:26:54.832Z,82.58
2022-12-06T05:29:21.692Z,82.56
2022-12-06T05:31:48.659Z,82.73
2022-12-06T05:34:15.589Z,82.52
2022-12-06T05:36:44.918Z,82.42
2022-12-06T05:39:11.947Z,81.67
2022-12-06T05:41:38.766Z,81.97
2022-12-06T05:44:05.748Z,81.76
2022-12-06T05:46:32.590Z,81.81
2022-12-06T05:48:59.421Z,81.91
2022-12-06T05:51:26.287Z,82.42
2022-12-06T05:53:53.157Z,82.56
2022-12-06T05:56:20.079Z,81.91
2022-12-06T05:58:46.891Z,81.85
2022-12-06T06:01:13.831Z,81.85
2022-12-06T06:03:46.960Z,82.02
2022-12-06T06:06:14.632Z,81.92
2022-12-06T06:08:41.513Z,81.78
2022-12-06T06:11:08.596Z,81.94
2022-12-06T06:13:35.419Z,81.89
2022-12-06T06:16:02.332Z,82.60
2022-12-06T06:18:29.339Z,81.83
2022-12-06T06:20:59.254Z,82.51
2022-12-06T06:23:27.788Z,82.62
2022-12-06T06:25:54.947Z,82.48
2022-12-06T06:28:21.879Z,82.42
2022-12-06T06:30:48.797Z,81.77
2022-12-06T06:33:16.182Z,82.36
2022-12-06T06:35:43.458Z,81.97
2022-12-06T06:38:10.296Z,81.51
2022-12-06T06:40:37.201Z,82.07
2022-12-06T06:43:18.452Z,81.42
2022-12-06T06:45:46.641Z,82.21
2022-12-06T06:48:13.564Z,82.05
2022-12-06T06:50:40.507Z,83.04
2022-12-06T06:53:07.388Z,83.80
2022-12-06T06:55:36.238Z,82.92
2022-12-06T06:58:04.097Z,83.45
2022-12-06T07:00:31.084Z,83.25
2022-12-06T07:02:58.134Z,82.93
2022-12-06T07:05:25.960Z,83.68
2022-12-06T07:07:53.098Z,83.76
2022-12-06T07:10:20.009Z,83.32
2022-12-06T07:12:46.960Z,83.97
2022-12-06T07:15:13.814Z,84.41
2022-12-06T07:17:40.657Z,82.99
2022-12-06T07:20:08.102Z,82.87
2022-12-06T07:22:34.867Z,81.10
2022-12-06T07:25:01.667Z,82.17
2022-12-06T07:27:28.555Z,82.21
2022-12-06T07:29:55.391Z,82.20
2022-12-06T07:32:22.207Z,82.49
2022-12-06T07:34:49.096Z,83.45
2022-12-06T07:37:19.052Z,83.00
2022-12-06T07:39:45.942Z,82.93
2022-12-06T07:42:31.588Z,82.54
2022-12-06T07:45:02.623Z,83.16
2022-12-06T07:47:38.501Z,83.63
2022-12-06T07:50:10.535Z,82.37
2022-12-06T07:52:41.895Z,83.19
2022-12-06T07:55:10.617Z,82.67
2022-12-06T07:57:43.153Z,82.66
2022-12-06T08:00:14.364Z,83.37
2022-12-06T08:02:41.877Z,82.86
2022-12-06T08:05:09.429Z,82.01
2022-12-06T08:07:36.491Z,82.15
2022-12-06T08:10:04.583Z,82.03
2022-12-06T08:12:32.411Z,82.38
2022-12-06T08:15:00.130Z,81.34
2022-12-06T08:17:27.733Z,81.77
2022-12-06T08:19:54.687Z,81.35
2022-12-06T08:22:21.574Z,81.57
2022-12-06T08:24:48.484Z,81.89
2022-12-06T08:27:15.494Z,81.24
2022-12-06T08:29:45.266Z,82.01
2022-12-06T08:32:12.324Z,81.37
2022-12-06T08:34:39.179Z,79.20
2022-12-06T08:37:06.115Z,79.85
2022-12-06T08:39:32.956Z,79.43
2022-12-06T08:41:59.835Z,79.69
2022-12-06T08:44:28.694Z,79.51
2022-12-06T08:46:56.721Z,79.88
2022-12-06T08:49:25.529Z,79.67
2022-12-06T08:51:53.186Z,79.73
2022-12-06T08:54:23.138Z,79.42
2022-12-06T08:56:51.326Z,79.29
2022-12-06T08:59:19.210Z,80.11
2022-12-06T09:01:47.154Z,79.92
2022-12-06T09:04:14.969Z,79.61
2022-12-06T09:06:43.811Z,78.85
2022-12-06T09:09:12.342Z,78.38
2022-12-06T09:11:40.477Z,77.64
2022-12-06T09:14:09.394Z,78.13
2022-12-06T09:16:36.971Z,78.62
2022-12-06T09:19:04.144Z,78.34
2022-12-06T09:21:31.857Z,78.47
2022-12-06T09:23:59.260Z,78.58
2022-12-06T09:26:26.989Z,78.46
2022-12-06T09:28:55.707Z,78.32
2022-12-06T09:31:23.844Z,78.88
2022-12-06T09:33:51.802Z,78.11
2022-12-06T09:36:24.104Z,78.47
2022-12-06T09:39:08.163Z,78.42
2022-12-06T09:42:02.890Z,76.95
2022-12-06T09:44:39.666Z,76.60
2022-12-06T09:47:15.618Z,76.80
2022-12-06T09:50:03.781Z,77.43
2022-12-06T09:52:45.728Z,78.37
2022-12-06T09:55:24.306Z,78.19
2022-12-06T09:58:10.460Z,78.30
2022-12-06T10:00:56.745Z,77.76
2022-12-06T10:03:58.908Z,79.01
2022-12-06T10:06:35.490Z,78.22
2022-12-06T10:09:05.299Z,78.59
2022-12-06T10:11:59.949Z,78.53
2022-12-06T10:15:08.376Z,76.98
2022-12-06T10:18:08.736Z,77.04
2022-12-06T10:20:45.716Z,76.86
2022-12-06T10:23:40.023Z,76.95
2022-12-06T10:26:51.329Z,76.67
2022-12-06T10:29:30.233Z,76.30
2022-12-06T10:32:10.930Z,76.56
2022-12-06T10:34:58.488Z,76.33
2022-12-06T10:37:28.196Z,75.97
2022-12-06T10:40:01.794Z,75.83
2022-12-06T10:42:28.906Z,76.18
2022-12-06T10:45:34.140Z,75.84
2022-12-06T10:48:07.578Z,75.85
2022-12-06T10:50:36.758Z,75.75
2022-12-06T10:53:17.306Z,75.26
2022-12-06T10:55:54.656Z,75.42
2022-12-06T10:58:36.299Z,74.78
2022-12-06T11:01:17.173Z,75.51
2022-12-06T11:03:53.657Z,75.26
2022-12-06T11:06:26.635Z,76.02
2022-12-06T11:08:58.254Z,76.27
2022-12-06T11:11:31.566Z,74.97
2022-12-06T11:14:20.403Z,75.32
2022-12-06T11:17:13.324Z,75.33
2022-12-06T11:19:48.723Z,76.11
2022-12-06T11:22:15.471Z,75.98
2022-12-06T11:25:14.565Z,75.39
2022-12-06T11:27:49.523Z,75.56
2022-12-06T11:30:20.575Z,75.16
2022-12-06T11:32:51.316Z,75.88
2022-12-06T11:35:25.407Z,76.22
2022-12-06T11:37:58.110Z,76.24
2022-12-06T11:40:32.482Z,75.94
2022-12-06T11:43:02.690Z,76.13
2022-12-06T11:45:33.780Z,76.81
2022-12-06T11:48:07.809Z,77.39
2022-12-06T11:50:36.677Z,77.23
2022-12-06T11:53:28.481Z,77.77
2022-12-06T11:56:01.036Z,76.45
2022-12-06T11:58:43.979Z,77.25
2022-12-06T12:01:14.588Z,76.01
2022-12-06T12:03:44.205Z,76.73
2022-12-06T12:06:22.041Z,75.88
2022-12-06T12:08:59.863Z,76.26
2022-12-06T12:11:37.467Z,76.25
2022-12-06T12:14:35.490Z,76.81
2022-12-06T12:17:03.930Z,76.75
2022-12-06T12:19:36.823Z,76.14
2022-12-06T12:22:28.015Z,76.72
2022-12-06T12:27:47.158Z,77.11
2022-12-06T12:30:27.677Z,76.54
2022-12-06T12:33:06.731Z,76.78
2022-12-06T12:35:42.452Z,76.70
2022-12-06T12:38:25.969Z,76.77
2022-12-06T12:41:18.112Z,77.17
2022-12-06T12:44:13.533Z,76.94
2022-12-06T12:46:45.026Z,76.74
2022-12-06T12:49:21.759Z,77.43
2022-12-06T12:51:48.781Z,77.25
2022-12-06T12:54:39.265Z,77.07
2022-12-06T12:57:12.703Z,77.54
2022-12-06T12:59:41.069Z,77.68
2022-12-06T13:02:28.994Z,77.28
2022-12-06T13:05:33.426Z,76.43
2022-12-06T13:08:15.829Z,76.79
2022-12-06T13:10:47.142Z,77.08
2022-12-06T13:13:20.673Z,77.28
2022-12-06T13:15:56.590Z,76.21
2022-12-06T13:18:27.019Z,76.23
2022-12-06T13:20:56.918Z,75.79
2022-12-06T13:23:27.699Z,76.92
2022-12-06T13:26:14.975Z,76.42
2022-12-06T13:28:47.426Z,76.02
2022-12-06T13:31:19.968Z,76.04
2022-12-06T13:33:59.049Z,75.64
2022-12-06T13:36:31.255Z,76.18
2022-12-06T13:38:58.221Z,76.39
2022-12-06T13:41:54.266Z,76.86
2022-12-06T13:44:40.786Z,77.12
2022-12-06T13:47:26.531Z,78.01
2022-12-06T13:49:59.861Z,77.57
2022-12-06T13:52:45.416Z,77.04
2022-12-06T13:55:38.629Z,77.23
2022-12-06T13:58:05.617Z,76.95
2022-12-06T14:00:34.057Z,77.21
2022-12-06T14:03:16.278Z,76.47
2022-12-06T14:06:14.384Z,76.11
2022-12-06T14:08:52.283Z,76.18
2022-12-06T14:11:21.782Z,77.12
2022-12-06T14:14:00.759Z,77.19
2022-12-06T14:16:39.807Z,76.58
2022-12-06T14:19:15.293Z,76.32
2022-12-06T14:21:51.193Z,75.78
2022-12-06T14:24:34.040Z,76.92
2022-12-06T14:27:18.619Z,77.82
2022-12-06T14:30:04.704Z,77.73
2022-12-06T14:32:40.010Z,77.33
2022-12-06T14:35:13.279Z,77.81
2022-12-06T14:37:47.131Z,77.33
2022-12-06T14:40:45.763Z,77.41
2022-12-06T14:43:18.094Z,78.09
2022-12-06T14:45:46.561Z,77.80
2022-12-06T14:48:13.743Z,77.92
2022-12-06T14:50:45.467Z,77.55
2022-12-06T14:53:15.228Z,78.09
2022-12-06T14:55:55.492Z,77.78
2022-12-06T14:58:26.213Z,77.29
2022-12-06T15:01:02.948Z,77.88
2022-12-06T15:03:37.641Z,78.06
2022-12-06T15:06:13.501Z,78.01
2022-12-06T15:08:48.121Z,77.67
2022-12-06T15:11:38.656Z,77.18
2022-12-06T15:14:22.116Z,77.57
2022-12-06T15:17:02.984Z,78.03
2022-12-06T15:19:31.926Z,78.46
2022-12-06T15:21:58.923Z,78.12
2022-12-06T15:24:27.662Z,78.89
2022-12-06T15:26:55.100Z,78.02
2022-12-06T15:29:22.440Z,78.90
2022-12-06T15:31:54.447Z,78.94
2022-12-06T15:34:32.742Z,78.98
2022-12-06T15:37:30.143Z,79.14
2022-12-06T15:39:48.474Z,79.08
2022-12-06T15:42:21.860Z,79.90
2022-12-06T15:44:50.281Z,79.83
2022-12-06T15:47:19.788Z,80.68
2022-12-06T15:49:48.996Z,79.85
2022-12-06T15:52:17.724Z,81.04
2022-12-06T15:54:45.142Z,80.71
2022-12-06T15:57:11.969Z,80.66
2022-12-06T15:59:38.818Z,80.04
2022-12-06T16:02:15.414Z,80.29
2022-12-06T16:04:43.218Z,79.69
2022-12-06T16:07:10.798Z,78.57
2022-12-06T16:09:38.259Z,79.11
2022-12-06T16:12:05.612Z,79.41
2022-12-06T16:14:32.677Z,79.04
2022-12-06T16:16:59.543Z,79.04
2022-12-06T16:19:46.310Z,79.71
2022-12-06T16:22:13.221Z,79.47
2022-12-06T16:24:39.998Z,79.27
2022-12-06T16:27:06.804Z,79.42
2022-12-06T16:29:33.751Z,79.67
2022-12-06T16:32:00.745Z,80.33
2022-12-06T16:34:29.455Z,80.58
2022-12-06T16:37:00.668Z,80.53
2022-12-06T16:39:30.061Z,79.94
2022-12-06T16:41:57.063Z,79.76
2022-12-06T16:44:24.262Z,81.11
2022-12-06T16:46:52.016Z,80.81
2022-12-06T16:52:08.635Z,80.47
2022-12-06T16:54:39.003Z,81.33
2022-12-06T16:57:05.903Z,81.18
2022-12-06T16:59:32.751Z,80.48
2022-12-06T17:01:59.620Z,80.77
2022-12-06T17:04:26.896Z,80.70
2022-12-06T17:06:53.886Z,80.83
2022-12-06T17:09:20.673Z,80.70
2022-12-06T17:12:02.756Z,80.50
2022-12-06T17:14:30.363Z,80.96
2022-12-06T17:17:00.345Z,80.89
2022-12-06T17:19:28.422Z,80.48
2022-12-06T17:21:55.465Z,81.15
2022-12-06T17:24:25.043Z,80.74
2022-12-06T17:26:54.236Z,80.77
2022-12-06T17:29:23.463Z,80.51
2022-12-06T17:31:51.210Z,80.72
2022-12-06T17:34:19.459Z,80.74
2022-12-06T17:36:47.547Z,81.01
2022-12-06T17:39:17.603Z,81.29
2022-12-06T17:42:03.542Z,80.57
2022-12-06T17:44:30.664Z,80.56
2022-12-06T17:46:57.567Z,80.90
2022-12-06T17:49:26.672Z,81.50
2022-12-06T17:51:54.211Z,81.88
2022-12-06T17:54:22.911Z,81.43
2022-12-06T17:56:51.828Z,80.75
2022-12-06T17:59:21.044Z,80.86
2022-12-06T18:04:35.920Z,81.21
2022-12-06T18:07:03.042Z,80.64
2022-12-06T18:09:29.943Z,80.54
2022-12-06T18:11:56.911Z,81.29
2022-12-06T18:14:23.719Z,81.33
2022-12-06T18:16:50.707Z,80.89
2022-12-06T18:19:22.859Z,81.06
2022-12-06T18:21:52.392Z,81.10
2022-12-06T18:24:23.304Z,81.43
2022-12-06T18:26:52.496Z,80.72
2022-12-06T18:29:21.678Z,81.07
2022-12-06T18:31:49.413Z,81.51
2022-12-06T18:34:16.651Z,81.42
2022-12-06T18:36:43.593Z,81.41
2022-12-06T18:39:16.689Z,81.35
2022-12-06T18:41:44.743Z,81.66
2022-12-06T18:44:12.875Z,80.54
2022-12-06T18:46:42.770Z,80.11
2022-12-06T18:49:11.803Z,79.63
2022-12-06T18:51:39.052Z,80.56
2022-12-06T18:54:06.998Z,79.75
2022-12-06T18:56:35.289Z,80.26
2022-12-06T18:59:04.868Z,80.49
2022-12-06T19:01:34.864Z,81.25
2022-12-06T19:04:03.630Z,80.77
2022-12-06T19:06:32.958Z,81.28
2022-12-06T19:09:02.080Z,81.81
2022-12-06T19:11:29.043Z,80.74
2022-12-06T19:14:00.453Z,80.97
2022-12-06T19:16:35.235Z,80.54
2022-12-06T19:19:03.822Z,81.16
2022-12-06T19:21:35.211Z,81.68
2022-12-06T19:24:02.644Z,80.82
2022-12-06T19:26:29.991Z,81.03
2022-12-06T19:28:57.363Z,81.32
2022-12-06T19:31:24.344Z,81.60
2022-12-06T19:33:52.501Z,80.80
2022-12-06T19:36:24.842Z,81.73
2022-12-06T19:38:59.347Z,81.34
2022-12-06T19:41:26.763Z,81.67
2022-12-06T19:44:12.714Z,81.50
2022-12-06T19:46:43.030Z,81.73
2022-12-06T19:49:11.559Z,82.42
2022-12-06T19:51:40.203Z,81.86
2022-12-06T19:54:07.849Z,82.60
2022-12-06T19:56:35.573Z,83.05
2022-12-06T19:59:11.469Z,82.52
2022-12-06T20:01:41.212Z,82.50
2022-12-06T20:04:08.672Z,83.15
2022-12-06T20:06:36.658Z,82.72
2022-12-06T20:09:04.196Z,83.14
2022-12-06T20:11:49.643Z,82.65
2022-12-06T20:14:18.609Z,83.13
2022-12-06T20:16:45.832Z,83.24
2022-12-06T20:19:17.556Z,83.09
2022-12-06T20:21:45.565Z,83.11
2022-12-06T20:24:15.174Z,82.36
2022-12-06T20:26:42.139Z,83.08
2022-12-06T20:29:09.988Z,83.05
2022-12-06T20:31:37.189Z,82.77
2022-12-06T20:34:11.573Z,82.22
2022-12-06T20:36:42.832Z,82.60
2022-12-06T20:39:20.966Z,81.55
2022-12-06T20:41:48.836Z,82.33
2022-12-06T20:44:16.626Z,82.08
2022-12-06T20:46:43.563Z,81.51
2022-12-06T20:49:10.574Z,82.12
2022-12-06T20:51:37.743Z,81.67
2022-12-06T20:54:07.225Z,81.41
2022-12-06T20:56:39.427Z,81.02
2022-12-06T20:59:07.943Z,81.89
2022-12-06T21:01:38.790Z,81.78
2022-12-06T21:04:06.152Z,80.70
2022-12-06T21:06:33.025Z,81.53
2022-12-06T21:08:59.930Z,81.37
2022-12-06T21:11:26.928Z,80.87
2022-12-06T21:13:55.323Z,81.15
2022-12-06T21:16:27.502Z,81.07
2022-12-06T21:19:00.945Z,81.26
2022-12-06T21:21:37.032Z,81.29
2022-12-06T21:24:06.754Z,80.86
2022-12-06T21:26:34.632Z,81.45
2022-12-06T21:29:02.022Z,81.17
2022-12-06T21:31:34.304Z,81.85
2022-12-06T21:34:01.876Z,81.65
2022-12-06T21:36:28.698Z,81.18
2022-12-06T21:38:55.864Z,81.27
2022-12-06T21:41:23.041Z,81.66
2022-12-06T21:43:49.984Z,81.85
2022-12-06T21:46:20.503Z,81.80
2022-12-06T21:48:52.364Z,81.26
2022-12-06T21:51:20.335Z,81.40
2022-12-06T21:53:48.002Z,80.45
2022-12-06T21:56:20.447Z,81.35
2022-12-06T21:58:48.583Z,80.70
2022-12-06T22:01:18.644Z,79.91
2022-12-06T22:03:50.028Z,80.30
2022-12-06T22:06:17.723Z,79.88
2022-12-06T22:08:46.151Z,79.50
2022-12-06T22:11:19.348Z,80.51
2022-12-06T22:13:48.038Z,80.31
2022-12-06T22:16:16.194Z,80.26
2022-12-06T22:18:45.863Z,80.06
2022-12-06T22:21:19.419Z,80.57
2022-12-06T22:23:46.999Z,80.13
2022-12-06T22:26:16.880Z,80.72
2022-12-06T22:28:43.880Z,80.66
2022-12-06T22:31:14.899Z,81.14
2022-12-06T22:33:42.303Z,81.19
2022-12-06T22:36:10.188Z,81.61
2022-12-06T22:38:37.386Z,81.87
2022-12-06T22:41:05.409Z,82.08
2022-12-06T22:43:33.169Z,82.33
2022-12-06T22:46:05.486Z,82.20
2022-12-06T22:48:32.505Z,82.76
2022-12-06T22:51:21.009Z,83.01
2022-12-06T22:53:56.401Z,82.62
2022-12-06T22:56:24.082Z,83.87
2022-12-06T22:58:59.190Z,83.32
2022-12-06T23:01:28.636Z,83.53
2022-12-06T23:03:56.449Z,83.13
2022-12-06T23:06:25.848Z,82.35
2022-12-06T23:08:53.767Z,83.15
2022-12-06T23:11:23.730Z,82.19
2022-12-06T23:13:50.900Z,82.10
2022-12-06T23:16:20.699Z,81.70
2022-12-06T23:18:49.479Z,81.47
2022-12-06T23:21:21.738Z,82.04
2022-12-06T23:23:50.922Z,82.14
2022-12-06T23:26:23.022Z,81.28
2022-12-06T23:28:50.074Z,82.16
2022-12-06T23:31:20.033Z,81.83
2022-12-06T23:33:48.361Z,81.87
2022-12-06T23:36:20.634Z,81.79
2022-12-06T23:38:47.901Z,82.06
2022-12-06T23:41:20.694Z,82.07
2022-12-06T23:43:47.890Z,82.73
2022-12-06T23:46:21.969Z,81.55
2022-12-06T23:48:50.148Z,81.35
2022-12-06T23:51:19.799Z,81.22
2022-12-06T23:53:51.443Z,81.36
2022-12-06T23:56:20.651Z,81.18
2022-12-06T23:58:48.156Z,81.23
